Time;durP1;ratioP1;P1;durP2;ratioP2;P2;SDS_P1;SDS_P2;PMS_P1;PMS_P2;Temp;Humidity;BMP_temperature;BMP_pressure;BME280_temperature;BME280_humidity;BME280_pressure;Samples;Min_cycle;Max_cycle;Signal;HPM_P1;HPM_P2
2022/03/11 00:02:06;;;;;;;14.07;8.47;;;9.10;99.90;;;;;;4996412;28;20206;-70
2022/03/11 00:04:31;;;;;;;14.37;8.53;;;9.10;99.90;;;;;;5004565;28;20559;-70
2022/03/11 00:06:57;;;;;;;14.57;8.37;;;9.00;99.90;;;;;;4996148;28;20205;-70
2022/03/11 00:09:23;;;;;;;13.00;8.07;;;9.00;99.90;;;;;;4993310;28;20672;-71
2022/03/11 00:11:49;;;;;;;14.00;7.87;;;9.00;99.90;;;;;;4998416;28;20192;-71
2022/03/11 00:14:15;;;;;;;18.13;9.60;;;9.00;99.90;;;;;;5008589;28;20192;-70
2022/03/11 00:16:41;;;;;;;14.80;7.07;;;9.00;99.90;;;;;;5017117;28;20198;-70
2022/03/11 00:19:06;;;;;;;17.03;9.27;;;8.90;99.90;;;;;;5012295;28;20191;-71
2022/03/11 00:21:32;;;;;;;19.73;8.63;;;8.80;99.90;;;;;;4988103;28;20188;-70
2022/03/11 00:23:58;;;;;;;13.17;8.93;;;8.80;99.90;;;;;;4995007;28;20196;-71
2022/03/11 00:26:24;;;;;;;15.73;8.00;;;8.70;99.90;;;;;;5000472;28;20196;-71
2022/03/11 00:28:53;;;;;;;18.77;10.00;;;8.70;99.90;;;;;;4993051;28;20287;-70
2022/03/11 00:31:19;;;;;;;15.10;7.50;;;8.70;99.90;;;;;;4960592;28;20279;-70
2022/03/11 00:33:45;;;;;;;13.90;8.70;;;8.70;99.90;;;;;;4989632;28;20215;-70
2022/03/11 00:36:10;;;;;;;12.10;7.67;;;8.60;99.90;;;;;;4995930;28;20237;-70
2022/03/11 00:38:36;;;;;;;18.10;9.97;;;8.70;99.90;;;;;;4996684;28;20190;-70
2022/03/11 00:41:02;;;;;;;16.80;9.50;;;8.50;99.90;;;;;;5008827;28;20563;-70
2022/03/11 00:43:28;;;;;;;14.97;8.50;;;8.40;99.90;;;;;;5009821;28;20262;-70
2022/03/11 00:45:54;;;;;;;15.80;9.30;;;8.40;99.90;;;;;;5003054;28;20196;-70
2022/03/11 00:48:21;;;;;;;16.67;9.30;;;8.40;99.90;;;;;;5009401;28;20172;-71
2022/03/11 00:50:47;;;;;;;16.30;9.10;;;8.30;99.90;;;;;;5008642;28;20614;-70
2022/03/11 00:53:13;;;;;;;11.80;7.30;;;8.30;99.90;;;;;;4992719;28;20195;-72
2022/03/11 00:55:39;;;;;;;14.27;9.30;;;8.30;99.90;;;;;;4994776;28;20266;-70
2022/03/11 00:58:05;;;;;;;15.27;8.90;;;8.20;99.90;;;;;;4999914;28;20579;-70
2022/03/11 01:00:32;;;;;;;16.53;8.50;;;8.20;99.90;;;;;;5003395;28;20385;-70
2022/03/11 01:02:58;;;;;;;11.13;7.87;;;8.10;99.90;;;;;;5001450;28;20339;-70
2022/03/11 01:05:24;;;;;;;15.03;7.90;;;8.10;99.90;;;;;;4976546;28;20527;-70
2022/03/11 01:07:50;;;;;;;12.70;8.50;;;8.10;99.90;;;;;;5005207;28;20204;-70
2022/03/11 01:10:17;;;;;;;14.50;9.23;;;8.00;99.90;;;;;;5003498;28;20203;-70
2022/03/11 01:12:45;;;;;;;16.53;8.80;;;8.00;99.90;;;;;;4983566;28;20202;-70
2022/03/11 01:15:11;;;;;;;15.90;8.93;;;8.00;99.90;;;;;;4982798;28;20192;-70
2022/03/11 01:17:38;;;;;;;17.83;10.20;;;7.90;99.90;;;;;;5006686;28;20195;-70
2022/03/11 01:20:06;;;;;;;16.20;8.23;;;7.90;99.90;;;;;;4994996;28;20664;-70
2022/03/11 01:22:32;;;;;;;15.87;9.00;;;7.90;99.90;;;;;;5008017;28;20253;-71
2022/03/11 01:24:58;;;;;;;14.63;8.37;;;7.90;99.90;;;;;;4996786;28;20656;-71
2022/03/11 01:27:24;;;;;;;15.30;8.73;;;7.90;99.90;;;;;;4993015;28;20270;-70
2022/03/11 01:29:49;;;;;;;12.13;8.00;;;7.80;99.90;;;;;;5008039;28;20298;-70
2022/03/11 01:32:16;;;;;;;12.17;7.50;;;7.80;99.90;;;;;;4997962;28;20192;-70
2022/03/11 01:34:41;;;;;;;15.47;8.87;;;7.80;99.90;;;;;;5006796;28;20202;-70
2022/03/11 01:37:07;;;;;;;14.67;8.23;;;7.80;99.90;;;;;;5011971;28;20179;-70
2022/03/11 01:39:33;;;;;;;14.47;9.40;;;7.80;99.90;;;;;;4994285;28;20199;-71
2022/03/11 01:41:59;;;;;;;18.90;9.43;;;7.80;99.90;;;;;;5007819;28;20212;-70
2022/03/11 01:44:26;;;;;;;14.47;8.80;;;7.60;99.90;;;;;;5011321;28;20191;-70
2022/03/11 01:46:52;;;;;;;17.43;9.30;;;7.60;99.90;;;;;;4991968;28;20218;-70
2022/03/11 01:49:18;;;;;;;11.27;7.73;;;7.70;99.90;;;;;;4993138;28;20227;-70
2022/03/11 01:51:44;;;;;;;16.80;9.33;;;7.80;99.90;;;;;;4993496;28;20196;-70
2022/03/11 01:54:10;;;;;;;14.90;9.27;;;7.70;99.90;;;;;;4995107;28;20187;-71
2022/03/11 01:56:37;;;;;;;15.03;8.73;;;7.80;99.90;;;;;;5012869;28;20655;-70
2022/03/11 01:59:04;;;;;;;13.97;8.97;;;7.70;99.90;;;;;;4995287;28;20196;-70
2022/03/11 02:01:30;;;;;;;15.17;8.33;;;7.70;99.90;;;;;;4995104;28;20184;-71
2022/03/11 02:03:58;;;;;;;13.77;8.37;;;7.70;99.90;;;;;;4994245;28;20279;-70
2022/03/11 02:06:24;;;;;;;15.13;8.37;;;7.60;99.90;;;;;;4996076;28;20210;-70
2022/03/11 02:08:50;;;;;;;13.83;8.10;;;7.50;99.90;;;;;;4974987;28;20215;-70
2022/03/11 02:11:16;;;;;;;15.13;9.60;;;7.60;99.90;;;;;;4982446;28;20196;-70
2022/03/11 02:13:51;;;;;;;13.73;7.60;;;7.60;99.90;;;;;;4987861;28;20190;-70
2022/03/11 02:16:29;;;;;;;14.37;9.10;;;7.50;99.90;;;;;;4992626;28;20178;-70
2022/03/11 02:18:55;;;;;;;14.80;9.23;;;7.50;99.90;;;;;;5008148;28;20277;-70
2022/03/11 02:21:22;;;;;;;14.23;8.77;;;7.40;99.90;;;;;;4996001;28;20199;-70
2022/03/11 02:23:54;;;;;;;16.30;9.27;;;7.40;99.90;;;;;;5011329;28;20215;-71
2022/03/11 02:26:22;;;;;;;14.13;8.70;;;7.40;99.90;;;;;;5022799;28;20671;-70
2022/03/11 02:28:49;;;;;;;14.93;9.00;;;7.30;99.90;;;;;;5000501;28;20196;-70
2022/03/11 02:31:15;;;;;;;14.77;8.43;;;7.20;99.90;;;;;;5010966;28;20274;-70
2022/03/11 02:33:41;;;;;;;17.63;8.60;;;7.30;99.90;;;;;;4998089;28;20283;-70
2022/03/11 02:36:07;;;;;;;15.33;7.90;;;7.30;99.90;;;;;;5010601;28;20196;-70
2022/03/11 02:38:33;;;;;;;13.63;8.83;;;7.20;99.90;;;;;;5008834;28;20188;-70
2022/03/11 02:40:59;;;;;;;15.07;8.43;;;7.30;99.90;;;;;;5010990;28;20203;-70
2022/03/11 02:43:25;;;;;;;13.47;9.10;;;7.30;99.90;;;;;;5001930;28;20188;-73
2022/03/11 02:45:52;;;;;;;14.83;7.83;;;7.40;99.90;;;;;;4996417;28;20203;-70
2022/03/11 02:48:18;;;;;;;13.03;8.30;;;7.30;99.90;;;;;;5007469;28;20546;-70
2022/03/11 02:50:44;;;;;;;15.60;8.27;;;7.40;99.90;;;;;;5013876;28;20282;-70
2022/03/11 02:53:10;;;;;;;14.50;9.07;;;7.40;99.90;;;;;;5009409;28;20188;-70
2022/03/11 02:55:35;;;;;;;15.13;8.47;;;7.30;99.90;;;;;;5021632;28;20214;-70
2022/03/11 02:58:01;;;;;;;11.90;7.60;;;7.30;99.90;;;;;;4993237;28;20195;-70
2022/03/11 03:00:27;;;;;;;14.57;8.97;;;7.20;99.90;;;;;;4995328;28;20227;-70
2022/03/11 03:02:52;;;;;;;16.07;8.83;;;7.20;99.90;;;;;;4994621;28;20259;-70
2022/03/11 03:05:18;;;;;;;13.03;7.97;;;7.10;99.90;;;;;;4995281;28;20801;-70
2022/03/11 03:07:44;;;;;;;16.40;7.90;;;7.10;99.90;;;;;;5005050;28;20200;-70
2022/03/11 03:10:13;;;;;;;11.50;9.07;;;7.10;99.90;;;;;;4988152;28;20298;-70
2022/03/11 03:12:40;;;;;;;11.80;8.80;;;7.10;99.90;;;;;;4994598;28;20188;-70
2022/03/11 03:15:07;;;;;;;12.00;8.00;;;7.00;99.90;;;;;;4994347;28;20547;-71
2022/03/11 03:17:34;;;;;;;12.10;8.10;;;7.00;99.90;;;;;;5008707;28;20192;-69
2022/03/11 03:20:00;;;;;;;13.87;8.13;;;7.00;99.90;;;;;;5010075;28;20195;-69
2022/03/11 03:22:26;;;;;;;13.37;7.57;;;7.00;99.90;;;;;;4987976;28;20317;-70
2022/03/11 03:24:51;;;;;;;15.13;8.67;;;6.90;99.90;;;;;;4994957;28;20223;-70
2022/03/11 03:27:17;;;;;;;12.90;7.73;;;7.00;99.90;;;;;;5013184;28;20202;-70
2022/03/11 03:29:43;;;;;;;11.87;8.17;;;7.00;99.90;;;;;;5000069;28;20703;-70
2022/03/11 03:32:09;;;;;;;13.10;8.47;;;7.00;99.90;;;;;;5003483;28;20235;-69
2022/03/11 03:34:37;;;;;;;14.83;8.23;;;6.90;99.90;;;;;;4997844;28;20703;-70
2022/03/11 03:37:09;;;;;;;14.43;8.20;;;6.90;99.90;;;;;;4995783;28;20266;-70
2022/03/11 03:39:35;;;;;;;17.67;8.60;;;6.80;99.90;;;;;;5003389;28;20601;-70
2022/03/11 03:42:01;;;;;;;14.10;8.33;;;6.80;99.90;;;;;;4995760;28;20199;-70
2022/03/11 03:44:26;;;;;;;13.10;8.37;;;6.90;99.90;;;;;;4995041;28;20187;-70
2022/03/11 03:46:52;;;;;;;13.27;8.23;;;6.80;99.90;;;;;;4967610;28;20238;-70
2022/03/11 03:49:19;;;;;;;17.47;8.00;;;6.90;99.90;;;;;;4994802;28;20239;-70
2022/03/11 03:51:46;;;;;;;11.10;7.43;;;6.80;99.90;;;;;;4997624;28;20192;-70
2022/03/11 03:54:12;;;;;;;8.77;6.77;;;6.70;99.90;;;;;;4994446;28;20187;-70
2022/03/11 03:56:38;;;;;;;17.83;8.90;;;6.60;99.90;;;;;;4996645;28;20226;-70
2022/03/11 03:59:06;;;;;;;9.87;7.23;;;6.50;99.90;;;;;;5012914;28;20191;-70
2022/03/11 04:01:36;;;;;;;9.53;6.83;;;6.60;99.90;;;;;;5011918;28;20202;-70
2022/03/11 04:04:05;;;;;;;15.53;7.67;;;6.50;99.90;;;;;;4991018;28;20184;-69
2022/03/11 04:06:33;;;;;;;13.87;7.80;;;6.40;99.90;;;;;;5011478;28;20191;-70
2022/03/11 04:08:59;;;;;;;14.60;8.23;;;6.50;99.90;;;;;;5006807;28;20294;-70
2022/03/11 04:11:26;;;;;;;17.40;8.30;;;6.40;99.90;;;;;;5013143;28;20191;-70
2022/03/11 04:13:53;;;;;;;13.07;7.97;;;6.50;99.90;;;;;;4992943;28;20215;-70
2022/03/11 04:16:19;;;;;;;10.73;7.70;;;6.60;99.90;;;;;;4993885;28;20188;-70
2022/03/11 04:18:45;;;;;;;13.53;7.57;;;6.80;99.90;;;;;;4993089;28;20192;-70
2022/03/11 04:21:11;;;;;;;10.50;7.30;;;7.00;99.90;;;;;;5009324;28;20211;-70
2022/03/11 04:23:37;;;;;;;10.80;7.10;;;7.20;99.90;;;;;;5008658;28;20645;-69
2022/03/11 04:26:04;;;;;;;11.20;8.53;;;7.20;99.90;;;;;;4996038;28;20219;-69
2022/03/11 04:28:29;;;;;;;13.77;6.73;;;7.10;99.90;;;;;;5002890;28;20509;-69
2022/03/11 04:30:55;;;;;;;11.13;7.83;;;7.20;99.90;;;;;;4992684;28;20246;-69
2022/03/11 04:33:22;;;;;;;13.83;8.07;;;7.40;99.90;;;;;;4983058;28;20637;-70
2022/03/11 04:35:48;;;;;;;16.10;8.80;;;7.40;99.90;;;;;;4985783;28;20659;-71
2022/03/11 04:38:14;;;;;;;15.03;8.43;;;7.30;99.90;;;;;;5012147;28;20648;-71
2022/03/11 04:40:40;;;;;;;10.67;6.30;;;7.40;99.90;;;;;;5002028;28;20203;-72
2022/03/11 04:43:05;;;;;;;13.13;7.37;;;7.60;99.90;;;;;;4992305;28;20188;-70
2022/03/11 04:45:31;;;;;;;12.80;7.53;;;7.70;99.90;;;;;;4995872;28;20550;-70
2022/03/11 04:48:00;;;;;;;20.30;8.63;;;7.80;99.90;;;;;;4985136;28;20215;-70
2022/03/11 04:50:26;;;;;;;18.23;9.30;;;7.80;99.90;;;;;;4991985;28;20212;-70
2022/03/11 04:52:52;;;;;;;13.33;8.70;;;7.80;99.90;;;;;;5001185;28;20537;-70
2022/03/11 04:55:18;;;;;;;12.20;7.17;;;7.90;99.90;;;;;;4995536;28;20191;-70
2022/03/11 04:57:44;;;;;;;21.07;8.57;;;7.80;99.90;;;;;;4999584;28;20188;-69
2022/03/11 05:00:11;;;;;;;15.27;8.93;;;7.90;99.90;;;;;;4984836;28;20207;-70
2022/03/11 05:02:40;;;;;;;14.97;8.07;;;7.90;99.90;;;;;;4995565;28;20256;-69
2022/03/11 05:05:07;;;;;;;14.80;7.87;;;7.80;99.90;;;;;;5011157;28;20187;-70
2022/03/11 05:07:35;;;;;;;15.77;9.13;;;7.80;99.90;;;;;;5013003;28;20214;-72
2022/03/11 05:10:02;;;;;;;13.50;7.37;;;7.70;99.90;;;;;;5005797;28;20208;-69
2022/03/11 05:12:27;;;;;;;14.03;8.17;;;7.80;99.90;;;;;;5008573;28;20191;-69
2022/03/11 05:14:53;;;;;;;15.63;8.33;;;7.70;99.90;;;;;;5005294;28;20263;-69
2022/03/11 05:17:19;;;;;;;14.00;8.00;;;7.60;99.90;;;;;;5007673;28;21175;-69
2022/03/11 05:19:45;;;;;;;15.10;8.03;;;7.70;99.90;;;;;;4994869;28;20559;-70
2022/03/11 05:22:11;;;;;;;15.53;8.57;;;7.70;99.90;;;;;;5007724;28;20180;-69
2022/03/11 05:24:38;;;;;;;12.33;7.23;;;7.80;99.90;;;;;;4994965;28;20203;-70
2022/03/11 05:27:05;;;;;;;17.47;8.93;;;7.80;99.90;;;;;;4992984;28;20184;-69
2022/03/11 05:29:32;;;;;;;15.37;7.80;;;7.70;99.90;;;;;;5000569;28;20207;-69
2022/03/11 05:31:58;;;;;;;16.10;9.33;;;7.70;99.90;;;;;;5004963;28;20196;-69
2022/03/11 05:34:24;;;;;;;15.60;8.83;;;7.80;99.90;;;;;;4997971;28;20195;-69
2022/03/11 05:36:50;;;;;;;13.87;7.23;;;7.90;99.90;;;;;;4995299;28;20183;-70
2022/03/11 05:39:16;;;;;;;11.10;7.43;;;7.80;99.90;;;;;;5012437;28;20203;-70
2022/03/11 05:41:42;;;;;;;15.40;8.07;;;7.80;99.90;;;;;;5007903;28;20245;-70
2022/03/11 05:44:08;;;;;;;15.73;7.80;;;7.90;99.90;;;;;;5005565;28;20188;-70
2022/03/11 05:46:34;;;;;;;16.00;8.97;;;7.80;99.90;;;;;;5011512;28;20694;-72
2022/03/11 05:48:59;;;;;;;14.33;8.60;;;7.90;99.90;;;;;;5011516;28;20188;-70
2022/03/11 05:51:26;;;;;;;14.77;9.03;;;7.90;99.90;;;;;;4993833;28;20184;-72
2022/03/11 05:53:51;;;;;;;12.27;7.67;;;7.90;99.90;;;;;;5011675;28;20645;-70
2022/03/11 05:56:17;;;;;;;11.60;7.57;;;7.90;99.90;;;;;;5015133;28;20190;-70
2022/03/11 05:58:43;;;;;;;11.20;8.60;;;7.80;99.90;;;;;;5001727;28;20192;-70
2022/03/11 06:01:08;;;;;;;14.63;8.23;;;7.90;99.90;;;;;;5008250;28;20204;-71
2022/03/11 06:03:34;;;;;;;11.83;7.40;;;8.00;99.90;;;;;;5015534;28;20194;-70
2022/03/11 06:06:00;;;;;;;13.83;8.10;;;7.80;99.90;;;;;;4982525;28;20195;-71
2022/03/11 06:08:25;;;;;;;12.03;7.30;;;7.90;99.90;;;;;;5015861;28;20203;-70
2022/03/11 06:10:51;;;;;;;12.77;8.47;;;8.00;99.90;;;;;;4988304;28;20242;-70
2022/03/11 06:13:21;;;;;;;11.77;7.10;;;7.90;99.90;;;;;;4995365;28;20616;-71
2022/03/11 06:15:46;;;;;;;13.43;7.63;;;7.90;99.90;;;;;;5003534;28;20656;-70
2022/03/11 06:18:15;;;;;;;11.43;7.27;;;7.90;99.90;;;;;;5015204;28;20221;-70
2022/03/11 06:20:41;;;;;;;11.03;8.63;;;7.80;99.90;;;;;;4983109;28;20202;-72
2022/03/11 06:23:07;;;;;;;11.00;7.70;;;7.80;99.90;;;;;;5015281;28;20183;-71
2022/03/11 06:25:33;;;;;;;15.63;7.53;;;7.90;99.90;;;;;;4995284;28;20559;-70
2022/03/11 06:27:58;;;;;;;16.37;8.20;;;7.90;99.90;;;;;;5003124;28;20190;-71
2022/03/11 06:30:24;;;;;;;13.73;8.73;;;7.90;99.90;;;;;;4995129;28;20788;-71
2022/03/11 06:32:51;;;;;;;13.87;8.63;;;8.00;99.90;;;;;;5004589;28;20672;-70
2022/03/11 06:35:17;;;;;;;15.77;8.27;;;7.90;99.90;;;;;;5014212;28;20203;-71
2022/03/11 06:37:45;;;;;;;15.07;8.83;;;7.80;99.90;;;;;;4994605;28;20188;-71
2022/03/11 06:40:11;;;;;;;14.80;8.50;;;7.90;99.90;;;;;;4996700;28;20600;-71
2022/03/11 06:42:39;;;;;;;13.10;8.57;;;8.00;99.90;;;;;;5007358;28;20234;-70
2022/03/11 06:45:06;;;;;;;14.60;7.57;;;8.00;99.90;;;;;;5013919;28;20266;-71
2022/03/11 06:47:32;;;;;;;13.10;7.73;;;8.00;99.90;;;;;;4998257;28;20183;-71
2022/03/11 06:49:58;;;;;;;13.17;7.33;;;7.90;99.90;;;;;;5011770;28;20571;-70
2022/03/11 06:52:23;;;;;;;12.87;8.80;;;8.00;99.90;;;;;;5002079;28;20195;-71
2022/03/11 06:54:49;;;;;;;12.73;7.80;;;7.90;99.90;;;;;;5010921;28;20192;-71
2022/03/11 06:57:17;;;;;;;13.30;8.23;;;7.90;99.90;;;;;;4996180;28;20196;-70
2022/03/11 06:59:44;;;;;;;16.47;7.70;;;8.00;99.90;;;;;;4996475;28;20658;-71
2022/03/11 07:02:10;;;;;;;16.20;8.80;;;8.10;99.90;;;;;;5014886;28;20230;-70
2022/03/11 07:04:36;;;;;;;17.33;8.63;;;8.10;99.90;;;;;;5014427;28;20195;-70
2022/03/11 07:07:03;;;;;;;13.03;8.53;;;8.30;99.90;;;;;;5009300;28;20211;-71
2022/03/11 07:09:28;;;;;;;19.10;8.67;;;8.30;99.90;;;;;;4990259;28;20625;-72
2022/03/11 07:11:57;;;;;;;11.87;7.63;;;8.30;99.90;;;;;;5014813;28;20577;-71
2022/03/11 07:14:26;;;;;;;13.23;8.33;;;8.30;99.90;;;;;;4997904;28;20199;-70
2022/03/11 07:16:52;;;;;;;13.27;8.43;;;8.50;99.90;;;;;;5013609;28;20215;-71
2022/03/11 07:19:21;;;;;;;16.93;8.80;;;9.50;99.90;;;;;;4977452;28;20220;-71
2022/03/11 07:21:47;;;;;;;12.10;7.80;;;10.60;99.90;;;;;;5001180;28;20191;-71
2022/03/11 07:24:12;;;;;;;14.50;8.07;;;11.60;99.90;;;;;;4997228;28;20230;-71
2022/03/11 07:26:38;;;;;;;15.47;8.63;;;12.20;99.90;;;;;;4980779;28;20197;-71
2022/03/11 07:29:07;;;;;;;11.47;7.80;;;12.90;99.90;;;;;;4999773;28;20549;-71
2022/03/11 07:31:33;;;;;;;15.18;8.85;;;13.60;99.90;;;;;;4993247;28;20282;-71
2022/03/11 07:33:59;;;;;;;12.88;7.45;;;13.40;99.90;;;;;;5009491;28;20271;-70
2022/03/11 07:36:25;;;;;;;17.10;8.75;;;13.40;99.90;;;;;;4987816;28;20238;-71
2022/03/11 07:38:51;;;;;;;11.32;8.48;;;13.50;99.90;;;;;;5012277;28;20552;-71
2022/03/11 07:41:17;;;;;;;12.80;9.10;;;13.90;99.90;;;;;;5018620;28;20671;-71
2022/03/11 07:43:46;;;;;;;15.13;10.35;;;14.20;99.90;;;;;;5009727;28;20225;-71
2022/03/11 07:46:14;;;;;;;14.80;8.93;;;14.90;99.90;;;;;;5005672;28;20195;-71
2022/03/11 07:48:41;;;;;;;15.90;9.38;;;15.20;99.90;;;;;;5010425;28;20199;-72
2022/03/11 07:51:07;;;;;;;15.73;10.05;;;15.80;99.90;;;;;;5006401;28;20302;-71
2022/03/11 07:53:33;;;;;;;14.73;9.77;;;15.50;99.90;;;;;;5012103;28;20183;-73
2022/03/11 07:55:59;;;;;;;13.70;9.88;;;14.70;99.90;;;;;;5014166;28;20192;-73
2022/03/11 07:58:25;;;;;;;15.73;9.02;;;14.30;99.90;;;;;;4999256;28;20186;-74
2022/03/11 08:00:52;;;;;;;16.40;9.25;;;14.70;99.90;;;;;;4994206;28;20227;-73
2022/03/11 08:03:19;;;;;;;13.23;7.82;;;14.50;99.90;;;;;;4995489;28;20187;-72
2022/03/11 08:05:45;;;;;;;13.32;8.60;;;14.50;99.90;;;;;;4963857;28;20191;-72
2022/03/11 08:08:11;;;;;;;18.88;9.52;;;14.70;99.90;;;;;;4979638;28;20199;-72
2022/03/11 08:10:37;;;;;;;28.23;10.38;;;15.20;99.90;;;;;;5011604;28;20219;-70
2022/03/11 08:13:06;;;;;;;13.88;9.15;;;15.00;99.90;;;;;;5010501;28;20191;-71
2022/03/11 08:15:33;;;;;;;14.85;8.55;;;15.10;99.90;;;;;;5016101;28;20195;-70
2022/03/11 08:17:58;;;;;;;13.68;8.93;;;14.80;99.90;;;;;;5004561;28;20188;-73
2022/03/11 08:20:24;;;;;;;15.30;9.18;;;15.50;99.90;;;;;;5005602;28;20242;-70
2022/03/11 08:22:50;;;;;;;16.67;9.20;;;15.80;99.90;;;;;;5001972;28;20246;-68
2022/03/11 08:25:17;;;;;;;15.52;9.25;;;16.10;99.90;;;;;;5010461;28;20192;-71
2022/03/11 08:27:43;;;;;;;12.93;8.63;;;15.80;99.90;;;;;;5006582;28;20192;-72
2022/03/11 08:30:10;;;;;;;13.93;8.60;;;15.40;99.90;;;;;;5000634;28;20574;-72
2022/03/11 08:32:37;;;;;;;13.50;9.52;;;16.30;99.90;;;;;;4989884;28;20191;-73
2022/03/11 08:35:03;;;;;;;12.95;8.93;;;16.60;99.90;;;;;;5012610;28;20186;-72
2022/03/11 08:37:29;;;;;;;14.48;8.80;;;16.30;99.90;;;;;;5006446;28;20275;-74
2022/03/11 08:39:55;;;;;;;15.52;8.65;;;15.60;99.90;;;;;;5006609;28;20277;-72
2022/03/11 08:42:20;;;;;;;16.50;9.45;;;14.00;99.90;;;;;;5006645;28;20188;-79
2022/03/11 08:44:46;;;;;;;16.15;9.27;;;13.90;99.90;;;;;;5000817;28;20191;-81
2022/03/11 08:47:12;;;;;;;16.10;9.82;;;13.80;99.90;;;;;;4979554;28;20183;-74
2022/03/11 08:49:38;;;;;;;18.05;9.90;;;13.40;99.90;;;;;;4999187;28;20207;-75
2022/03/11 08:52:04;;;;;;;11.88;9.00;;;13.00;99.90;;;;;;4995217;28;20202;-73
2022/03/11 08:54:30;;;;;;;17.80;9.20;;;12.50;99.90;;;;;;5012248;28;21021;-67
2022/03/11 08:56:56;;;;;;;13.53;8.30;;;12.40;99.90;;;;;;5006514;28;20225;-71
2022/03/11 08:59:22;;;;;;;14.95;9.63;;;12.40;99.90;;;;;;4993251;28;20203;-75
2022/03/11 09:01:51;;;;;;;13.20;8.90;;;12.50;99.90;;;;;;4997482;28;20196;-74
2022/03/11 09:04:17;;;;;;;14.00;8.90;;;12.60;99.90;;;;;;5001688;28;20637;-72
2022/03/11 09:06:43;;;;;;;18.30;8.53;;;12.40;99.90;;;;;;4993280;28;20203;-76
2022/03/11 09:09:09;;;;;;;14.83;9.77;;;12.30;99.90;;;;;;4994486;28;20534;-74
2022/03/11 09:11:35;;;;;;;15.30;8.87;;;12.20;99.90;;;;;;4989163;28;20195;-76
2022/03/11 09:14:01;;;;;;;13.83;8.67;;;12.20;99.90;;;;;;5010822;28;20208;-74
2022/03/11 09:16:27;;;;;;;21.37;9.40;;;12.30;99.90;;;;;;5003568;28;20242;-70
2022/03/11 09:18:54;;;;;;;17.47;8.60;;;12.30;99.90;;;;;;5011865;28;20222;-71
2022/03/11 09:21:21;;;;;;;17.47;8.97;;;12.40;99.90;;;;;;5011419;28;20187;-75
2022/03/11 09:23:47;;;;;;;16.60;10.70;;;12.40;99.90;;;;;;5003149;28;20207;-78
2022/03/11 09:26:14;;;;;;;15.37;10.10;;;12.50;99.90;;;;;;4997936;28;20245;-78
2022/03/11 09:28:40;;;;;;;15.03;8.87;;;12.60;99.90;;;;;;4997253;28;20195;-75
2022/03/11 09:31:08;;;;;;;21.53;9.23;;;12.70;99.90;;;;;;5015436;28;20246;-79
2022/03/11 09:33:43;;;;;;;12.83;8.73;;;12.70;99.90;;;;;;4988085;28;20708;-79
2022/03/11 09:36:09;;;;;;;14.77;9.30;;;12.70;99.90;;;;;;4999916;28;20195;-79
2022/03/11 09:38:38;;;;;;;14.43;8.80;;;12.70;99.90;;;;;;5012058;28;20188;-79
2022/03/11 09:41:04;;;;;;;15.85;9.80;;;12.80;99.90;;;;;;4997041;28;20188;-79
2022/03/11 09:43:31;;;;;;;17.10;9.23;;;13.10;99.90;;;;;;5003477;28;20187;-78
2022/03/11 09:45:57;;;;;;;15.43;9.60;;;13.20;99.90;;;;;;5015439;28;20187;-80
2022/03/11 09:48:23;;;;;;;15.85;8.80;;;13.40;99.90;;;;;;5016390;28;20194;-79
2022/03/11 09:50:49;;;;;;;16.83;8.88;;;13.50;99.90;;;;;;5009554;28;20208;-79
2022/03/11 09:53:16;;;;;;;14.38;8.82;;;13.50;99.90;;;;;;4997541;28;20278;-80
2022/03/11 09:55:42;;;;;;;16.05;9.38;;;13.80;99.90;;;;;;4997923;28;20653;-79
2022/03/11 09:58:08;;;;;;;14.32;8.40;;;13.90;99.90;;;;;;4994750;28;20195;-79
2022/03/11 10:00:35;;;;;;;14.98;8.23;;;13.50;99.90;;;;;;5014677;28;20202;-79
2022/03/11 10:03:01;;;;;;;11.93;8.10;;;13.50;99.90;;;;;;5001667;28;20659;-77
2022/03/11 10:05:49;;;;;;;15.30;7.80;;;13.70;99.90;;;;;;5011762;28;20587;-76
2022/03/11 10:08:16;;;;;;;12.20;6.78;;;13.80;99.90;;;;;;5013160;28;20220;-76
2022/03/11 10:10:43;;;;;;;10.85;7.15;;;13.70;99.90;;;;;;4998523;28;20218;-77
2022/03/11 10:13:11;;;;;;;12.65;8.48;;;13.60;99.90;;;;;;4980399;28;20671;-75
2022/03/11 10:15:39;;;;;;;11.25;7.47;;;13.60;99.90;;;;;;5001136;28;20184;-75
2022/03/11 10:18:09;;;;;;;12.93;7.95;;;13.70;99.90;;;;;;4997576;28;20196;-75
2022/03/11 10:20:36;;;;;;;17.17;8.70;;;13.80;99.90;;;;;;5004524;28;20678;-76
2022/03/11 10:23:08;;;;;;;12.25;8.35;;;13.90;99.90;;;;;;4996007;28;20191;-76
2022/03/11 10:25:34;;;;;;;13.48;8.35;;;13.90;99.90;;;;;;5007553;28;20270;-76
2022/03/11 10:28:08;;;;;;;12.52;8.50;;;14.00;99.90;;;;;;5011444;28;20276;-76
2022/03/11 10:30:39;;;;;;;12.95;7.32;;;14.10;99.90;;;;;;4996406;28;20231;-76
2022/03/11 10:33:12;;;;;;;11.95;7.78;;;14.00;99.90;;;;;;4996007;28;20196;-77
2022/03/11 10:35:44;;;;;;;11.15;7.65;;;13.90;99.90;;;;;;5013681;28;20194;-75
2022/03/11 10:38:13;;;;;;;14.18;7.20;;;13.80;99.90;;;;;;5011959;28;20283;-82
2022/03/11 10:40:43;;;;;;;13.35;7.25;;;13.80;99.90;;;;;;5015234;28;20183;-77
2022/03/11 10:43:15;;;;;;;9.68;7.15;;;14.00;99.90;;;;;;5015859;28;20246;-75
2022/03/11 10:45:44;;;;;;;11.38;7.30;;;13.90;99.90;;;;;;5015661;28;20186;-76
2022/03/11 10:48:10;;;;;;;11.38;7.43;;;14.00;99.90;;;;;;5010559;28;20230;-72
2022/03/11 10:50:36;;;;;;;9.48;6.80;;;14.20;99.90;;;;;;4995780;28;20732;-72
2022/03/11 10:53:06;;;;;;;12.23;8.38;;;14.40;99.90;;;;;;4996909;28;20541;-72
2022/03/11 10:55:33;;;;;;;12.85;7.82;;;14.50;99.90;;;;;;4998194;28;20591;-75
2022/03/11 10:58:01;;;;;;;11.80;7.32;;;14.30;99.90;;;;;;4996214;28;20282;-74
2022/03/11 11:00:29;;;;;;;10.68;6.95;;;14.30;99.90;;;;;;5009514;28;20269;-72
2022/03/11 11:02:57;;;;;;;12.85;8.05;;;14.40;99.90;;;;;;4995034;28;20180;-75
2022/03/11 11:05:26;;;;;;;12.10;6.85;;;14.50;99.90;;;;;;4996604;28;20192;-74
2022/03/11 11:07:53;;;;;;;15.55;6.82;;;14.70;99.90;;;;;;4997101;28;20196;-75
2022/03/11 11:10:21;;;;;;;8.60;6.20;;;14.70;99.90;;;;;;5007260;28;20979;-73
2022/03/11 11:12:47;;;;;;;9.98;7.32;;;14.80;99.90;;;;;;5002154;28;20274;-76
2022/03/11 11:15:15;;;;;;;13.70;8.07;;;15.00;99.90;;;;;;4998014;28;20206;-74
2022/03/11 11:17:42;;;;;;;10.77;7.07;;;15.10;99.90;;;;;;4997253;28;20179;-74
2022/03/11 11:20:47;;;;;;;14.68;7.85;;;15.20;99.90;;;;;;5017413;28;20179;-69
2022/03/11 11:23:15;;;;;;;9.07;6.35;;;15.30;99.90;;;;;;4988576;28;20200;-71
2022/03/11 11:25:43;;;;;;;12.00;6.70;;;15.30;99.90;;;;;;5013631;28;20322;-69
2022/03/11 11:28:14;;;;;;;11.10;6.90;;;15.40;99.90;;;;;;4997634;28;20241;-70
2022/03/11 11:30:40;;;;;;;9.07;6.10;;;15.30;99.90;;;;;;5012144;28;20293;-70
2022/03/11 11:33:06;;;;;;;11.95;6.82;;;15.20;99.90;;;;;;5009551;28;20196;-70
2022/03/11 11:35:38;;;;;;;8.00;6.18;;;15.30;99.90;;;;;;4998979;28;20816;-69
2022/03/11 11:38:09;;;;;;;11.18;6.90;;;15.50;99.90;;;;;;4996420;28;20199;-71
2022/03/11 11:40:37;;;;;;;12.65;5.72;;;15.50;99.90;;;;;;5004784;28;20252;-69
2022/03/11 11:43:14;;;;;;;10.70;6.43;;;15.30;99.90;;;;;;5008971;28;20237;-72
2022/03/11 11:45:44;;;;;;;8.05;6.70;;;15.40;99.90;;;;;;5007515;28;20194;-72
2022/03/11 11:48:35;;;;;;;7.28;5.90;;;15.60;99.90;;;;;;5010525;28;20184;-67
2022/03/11 11:51:07;;;;;;;9.85;6.65;;;15.70;99.90;;;;;;4994417;28;20294;-69
2022/03/11 11:53:42;;;;;;;11.82;6.07;;;15.90;99.90;;;;;;4993047;28;20187;-71
2022/03/11 11:56:33;;;;;;;12.07;5.85;;;15.80;99.90;;;;;;5010292;28;20178;-74
2022/03/11 11:59:01;;;;;;;9.77;6.75;;;15.90;99.90;;;;;;4995785;28;20188;-77
2022/03/11 12:01:47;;;;;;;31.88;8.48;;;16.10;99.90;;;;;;4995634;28;20187;-79
2022/03/11 12:04:27;;;;;;;8.48;5.15;;;16.20;99.90;;;;;;4995165;28;20199;-82
2022/03/11 12:06:55;;;;;;;7.82;5.82;;;16.30;99.90;;;;;;5004850;28;20210;-73
2022/03/11 12:09:39;;;;;;;7.93;5.60;;;16.30;99.90;;;;;;4997169;28;20191;-82
2022/03/11 12:12:09;;;;;;;14.13;6.53;;;16.40;99.90;;;;;;5011261;28;20184;-80
2022/03/11 12:15:06;;;;;;;7.60;5.80;;;16.30;99.90;;;;;;4994830;28;20183;-76
2022/03/11 12:17:51;;;;;;;7.68;5.65;;;16.40;99.90;;;;;;4995282;28;20188;-77
2022/03/11 12:20:26;;;;;;;6.97;5.22;;;16.60;99.90;;;;;;5004271;28;20183;-73
2022/03/11 12:22:57;;;;;;;7.30;5.03;;;16.70;99.90;;;;;;4998009;28;20564;-79
2022/03/11 12:25:26;;;;;;;7.10;5.50;;;16.80;99.90;;;;;;5010593;28;20184;-81
2022/03/11 12:28:07;;;;;;;7.65;6.03;;;16.80;99.90;;;;;;5012348;28;20195;-76
2022/03/11 12:30:48;;;;;;;6.78;4.63;;;16.80;99.90;;;;;;5013510;28;20321;-79
2022/03/11 12:33:19;;;;;;;8.05;5.75;;;16.60;99.90;;;;;;5010859;28;20665;-78
2022/03/11 12:35:48;;;;;;;8.77;4.60;;;16.60;99.90;;;;;;5013381;28;20618;-76
2022/03/11 12:38:19;;;;;;;8.45;5.38;;;16.50;99.90;;;;;;5013000;28;20624;-76
2022/03/11 12:40:46;;;;;;;6.57;4.47;;;16.60;99.90;;;;;;5003072;28;20196;-76
2022/03/11 12:43:14;;;;;;;10.43;6.50;;;16.80;99.90;;;;;;4995234;28;20192;-78
2022/03/11 12:45:40;;;;;;;7.40;5.03;;;16.80;99.90;;;;;;5012043;28;20258;-77